This is the latest recevied weather packets stored in our database for station/object G8SIB-9. If no packets are shown the sender has not sent any weather packets the latest 10 day(s).
| Time | Temp. | Humidity | Pressure | Rain* | Wind** | Luminosity | Snow |
|---|---|---|---|---|---|---|---|
| 1778056048 | 11.11° C | 68% | 1009.4 hPa | 0 mm | - | - | - |
| 1778055448 | 11.11° C | 67% | 1009.4 hPa | 0 mm | - | - | - |
| 1778054848 | 10.56° C | 68% | 1009.4 hPa | 0 mm | - | - | - |
| 1778054247 | 10.56° C | 67% | 1009.4 hPa | 0 mm | - | - | - |
| 1778053646 | 10.56° C | 69% | 1009.4 hPa | 0 mm | - | - | - |
| 1778053045 | 10.56° C | 69% | 1009.5 hPa | 0 mm | - | - | - |
| 1778052445 | 11.11° C | 67% | 1009.4 hPa | 0 mm | - | - | - |
| 1778051844 | 10.56° C | 70% | 1009.3 hPa | 0 mm | - | - | - |
| 1778051243 | 10° C | 71% | 1009.3 hPa | 0 mm | - | - | - |
| 1778050642 | 9.44° C | 72% | 1009.3 hPa | 0 mm | - | - | - |
| 1778050041 | 8.89° C | 75% | 1009.3 hPa | 0 mm | - | - | - |
| 1778049441 | 8.89° C | 74% | 1009.2 hPa | 0 mm | - | - | - |
| 1778048840 | 8.33° C | 76% | 1009.2 hPa | 0 mm | - | - | - |
| 1778048239 | 7.78° C | 79% | 1009.1 hPa | 0 mm | - | - | - |
| 1778047638 | 7.22° C | 81% | 1009.2 hPa | 0 mm | - | - | - |
| 1778047037 | 6.67° C | 83% | 1009.1 hPa | 0 mm | - | - | - |
| 1778046435 | 6.11° C | 85% | 1009.1 hPa | 0 mm | - | - | - |
| 1778045834 | 6.11° C | 86% | 1009 hPa | 0 mm | - | - | - |
| 1778045234 | 5.56° C | 87% | 1009.1 hPa | 0 mm | - | - | - |
| 1778044633 | 5.56° C | 87% | 1009.1 hPa | 0 mm | - | - | - |
| 1778044033 | 5.56° C | 88% | 1009.1 hPa | 0 mm | - | - | - |
| 1778043432 | 5.56° C | 87% | 1009.1 hPa | 0 mm | - | - | - |
| 1778042832 | 5.56° C | 87% | 1009.1 hPa | 0 mm | - | - | - |
| 1778042230 | 5.56° C | 87% | 1009.1 hPa | 0 mm | - | - | - |
| 1778041629 | 5.56° C | 87% | 1009.2 hPa | 0 mm | - | - | - |
* Rain latest hour (hover to see other rain measurements)
** Current wind speed in m/s (hover to see current wind gust speed)